sensor_id;sensor_type;location;lat;lon;timestamp;P1;durP1;ratioP1;P2;durP2;ratioP2
75246;SDS011;63844;50.042;19.224;2022-12-29T00:01:35;57.80;;;21.00;;
75246;SDS011;63844;50.042;19.224;2022-12-29T00:04:02;70.60;;;23.80;;
75246;SDS011;63844;50.042;19.224;2022-12-29T00:06:30;70.10;;;24.30;;
75246;SDS011;63844;50.042;19.224;2022-12-29T00:08:57;75.20;;;24.60;;
75246;SDS011;63844;50.042;19.224;2022-12-29T00:11:24;68.10;;;22.10;;
75246;SDS011;63844;50.042;19.224;2022-12-29T00:13:54;70.50;;;23.40;;
75246;SDS011;63844;50.042;19.224;2022-12-29T00:16:43;71.90;;;23.00;;
75246;SDS011;63844;50.042;19.224;2022-12-29T00:19:11;65.00;;;22.00;;
75246;SDS011;63844;50.042;19.224;2022-12-29T00:27:29;58.30;;;19.60;;
75246;SDS011;63844;50.042;19.224;2022-12-29T00:30:15;60.90;;;20.70;;
75246;SDS011;63844;50.042;19.224;2022-12-29T00:33:10;62.20;;;22.10;;
75246;SDS011;63844;50.042;19.224;2022-12-29T00:35:57;59.10;;;22.10;;
75246;SDS011;63844;50.042;19.224;2022-12-29T00:38:28;54.10;;;19.60;;
75246;SDS011;63844;50.042;19.224;2022-12-29T00:41:15;48.70;;;18.10;;
75246;SDS011;63844;50.042;19.224;2022-12-29T00:44:01;49.20;;;17.90;;
75246;SDS011;63844;50.042;19.224;2022-12-29T00:46:36;44.10;;;16.40;;
75246;SDS011;63844;50.042;19.224;2022-12-29T00:49:05;41.50;;;14.80;;
75246;SDS011;63844;50.042;19.224;2022-12-29T00:51:51;31.10;;;11.50;;
75246;SDS011;63844;50.042;19.224;2022-12-29T00:54:18;38.30;;;14.00;;
75246;SDS011;63844;50.042;19.224;2022-12-29T00:56:46;27.30;;;9.70;;
75246;SDS011;63844;50.042;19.224;2022-12-29T00:59:17;28.30;;;9.30;;
75246;SDS011;63844;50.042;19.224;2022-12-29T01:01:45;14.20;;;6.00;;
75246;SDS011;63844;50.042;19.224;2022-12-29T01:04:12;18.70;;;6.80;;
75246;SDS011;63844;50.042;19.224;2022-12-29T01:06:39;15.60;;;6.20;;
75246;SDS011;63844;50.042;19.224;2022-12-29T01:09:07;12.90;;;4.40;;
75246;SDS011;63844;50.042;19.224;2022-12-29T01:11:54;16.60;;;6.60;;
75246;SDS011;63844;50.042;19.224;2022-12-29T01:14:21;17.50;;;5.70;;
75246;SDS011;63844;50.042;19.224;2022-12-29T01:16:48;8.80;;;3.60;;
75246;SDS011;63844;50.042;19.224;2022-12-29T01:19:15;19.30;;;7.30;;
75246;SDS011;63844;50.042;19.224;2022-12-29T01:21:43;25.80;;;8.60;;
75246;SDS011;63844;50.042;19.224;2022-12-29T01:24:10;24.30;;;9.80;;
75246;SDS011;63844;50.042;19.224;2022-12-29T01:26:36;27.60;;;10.00;;
75246;SDS011;63844;50.042;19.224;2022-12-29T01:29:03;16.00;;;6.20;;
75246;SDS011;63844;50.042;19.224;2022-12-29T01:31:29;44.90;;;17.40;;
75246;SDS011;63844;50.042;19.224;2022-12-29T01:33:56;48.60;;;19.50;;
75246;SDS011;63844;50.042;19.224;2022-12-29T01:36:23;55.20;;;23.00;;
75246;SDS011;63844;50.042;19.224;2022-12-29T01:38:50;44.50;;;17.30;;
75246;SDS011;63844;50.042;19.224;2022-12-29T01:41:16;40.80;;;16.80;;
75246;SDS011;63844;50.042;19.224;2022-12-29T01:46:15;43.40;;;17.10;;
75246;SDS011;63844;50.042;19.224;2022-12-29T01:48:51;46.10;;;18.90;;
75246;SDS011;63844;50.042;19.224;2022-12-29T01:51:29;42.70;;;18.00;;
75246;SDS011;63844;50.042;19.224;2022-12-29T01:53:57;42.90;;;16.90;;
75246;SDS011;63844;50.042;19.224;2022-12-29T01:56:28;39.80;;;16.80;;
75246;SDS011;63844;50.042;19.224;2022-12-29T01:58:56;41.40;;;16.90;;
75246;SDS011;63844;50.042;19.224;2022-12-29T02:01:28;36.90;;;15.10;;
75246;SDS011;63844;50.042;19.224;2022-12-29T02:03:55;41.70;;;16.10;;
75246;SDS011;63844;50.042;19.224;2022-12-29T02:06:22;37.00;;;15.00;;
75246;SDS011;63844;50.042;19.224;2022-12-29T02:08:52;36.90;;;14.00;;
75246;SDS011;63844;50.042;19.224;2022-12-29T02:11:20;33.30;;;14.20;;
75246;SDS011;63844;50.042;19.224;2022-12-29T02:13:48;28.60;;;11.60;;
75246;SDS011;63844;50.042;19.224;2022-12-29T02:16:24;32.80;;;12.90;;
75246;SDS011;63844;50.042;19.224;2022-12-29T02:19:26;28.80;;;12.50;;
75246;SDS011;63844;50.042;19.224;2022-12-29T02:22:07;28.60;;;11.40;;
75246;SDS011;63844;50.042;19.224;2022-12-29T02:27:44;18.40;;;8.70;;
75246;SDS011;63844;50.042;19.224;2022-12-29T02:33:09;21.30;;;10.00;;
75246;SDS011;63844;50.042;19.224;2022-12-29T02:35:54;22.50;;;10.30;;
75246;SDS011;63844;50.042;19.224;2022-12-29T02:43:56;24.20;;;9.80;;
75246;SDS011;63844;50.042;19.224;2022-12-29T02:49:46;25.30;;;10.30;;
75246;SDS011;63844;50.042;19.224;2022-12-29T02:52:43;21.80;;;8.70;;
75246;SDS011;63844;50.042;19.224;2022-12-29T02:55:14;21.40;;;9.30;;
75246;SDS011;63844;50.042;19.224;2022-12-29T02:57:40;20.10;;;8.50;;
75246;SDS011;63844;50.042;19.224;2022-12-29T03:00:10;17.80;;;8.70;;
75246;SDS011;63844;50.042;19.224;2022-12-29T03:11:03;21.60;;;10.30;;
75246;SDS011;63844;50.042;19.224;2022-12-29T03:17:25;35.70;;;14.50;;
75246;SDS011;63844;50.042;19.224;2022-12-29T03:20:06;47.10;;;19.10;;
75246;SDS011;63844;50.042;19.224;2022-12-29T03:25:07;38.50;;;15.50;;
75246;SDS011;63844;50.042;19.224;2022-12-29T03:27:40;48.40;;;20.60;;
75246;SDS011;63844;50.042;19.224;2022-12-29T03:30:09;45.30;;;20.80;;
75246;SDS011;63844;50.042;19.224;2022-12-29T03:32:39;62.00;;;30.10;;
75246;SDS011;63844;50.042;19.224;2022-12-29T03:35:10;69.30;;;32.90;;
75246;SDS011;63844;50.042;19.224;2022-12-29T03:37:41;65.80;;;31.80;;
75246;SDS011;63844;50.042;19.224;2022-12-29T03:40:18;67.20;;;32.80;;
75246;SDS011;63844;50.042;19.224;2022-12-29T03:42:47;68.30;;;31.80;;
75246;SDS011;63844;50.042;19.224;2022-12-29T03:45:14;65.00;;;30.40;;
75246;SDS011;63844;50.042;19.224;2022-12-29T03:47:40;63.20;;;29.70;;
75246;SDS011;63844;50.042;19.224;2022-12-29T03:50:08;66.30;;;31.00;;
75246;SDS011;63844;50.042;19.224;2022-12-29T04:04:46;46.70;;;22.00;;
75246;SDS011;63844;50.042;19.224;2022-12-29T04:07:12;59.70;;;25.10;;
75246;SDS011;63844;50.042;19.224;2022-12-29T04:09:39;54.50;;;24.00;;
75246;SDS011;63844;50.042;19.224;2022-12-29T04:12:05;61.10;;;28.90;;
75246;SDS011;63844;50.042;19.224;2022-12-29T04:14:32;53.60;;;25.10;;
75246;SDS011;63844;50.042;19.224;2022-12-29T04:16:58;41.10;;;19.70;;
75246;SDS011;63844;50.042;19.224;2022-12-29T04:19:24;44.90;;;20.60;;
75246;SDS011;63844;50.042;19.224;2022-12-29T04:21:51;40.60;;;19.60;;
75246;SDS011;63844;50.042;19.224;2022-12-29T04:24:17;36.90;;;17.90;;
75246;SDS011;63844;50.042;19.224;2022-12-29T04:26:43;38.60;;;18.80;;
75246;SDS011;63844;50.042;19.224;2022-12-29T04:29:10;41.50;;;18.60;;
75246;SDS011;63844;50.042;19.224;2022-12-29T04:31:36;36.60;;;19.20;;
75246;SDS011;63844;50.042;19.224;2022-12-29T04:34:03;34.20;;;14.80;;
75246;SDS011;63844;50.042;19.224;2022-12-29T04:36:29;32.40;;;16.20;;
75246;SDS011;63844;50.042;19.224;2022-12-29T04:38:55;23.70;;;11.80;;
75246;SDS011;63844;50.042;19.224;2022-12-29T04:41:23;27.30;;;13.20;;
75246;SDS011;63844;50.042;19.224;2022-12-29T04:43:49;27.50;;;12.00;;
75246;SDS011;63844;50.042;19.224;2022-12-29T04:46:16;30.40;;;13.00;;
75246;SDS011;63844;50.042;19.224;2022-12-29T04:48:43;25.00;;;12.00;;
75246;SDS011;63844;50.042;19.224;2022-12-29T04:51:09;25.10;;;10.80;;
75246;SDS011;63844;50.042;19.224;2022-12-29T04:53:35;26.60;;;11.20;;
75246;SDS011;63844;50.042;19.224;2022-12-29T04:56:02;24.10;;;10.30;;
75246;SDS011;63844;50.042;19.224;2022-12-29T04:58:28;21.60;;;9.60;;
75246;SDS011;63844;50.042;19.224;2022-12-29T05:00:55;25.00;;;10.70;;
75246;SDS011;63844;50.042;19.224;2022-12-29T05:03:21;23.80;;;10.60;;
75246;SDS011;63844;50.042;19.224;2022-12-29T05:05:48;20.00;;;10.00;;
75246;SDS011;63844;50.042;19.224;2022-12-29T05:08:14;22.50;;;10.50;;
75246;SDS011;63844;50.042;19.224;2022-12-29T05:10:43;26.30;;;11.30;;
75246;SDS011;63844;50.042;19.224;2022-12-29T05:13:11;27.90;;;12.10;;
75246;SDS011;63844;50.042;19.224;2022-12-29T05:15:37;29.30;;;14.20;;
75246;SDS011;63844;50.042;19.224;2022-12-29T05:18:04;29.90;;;13.30;;
75246;SDS011;63844;50.042;19.224;2022-12-29T05:20:30;37.20;;;17.30;;
75246;SDS011;63844;50.042;19.224;2022-12-29T05:22:57;44.10;;;19.60;;
75246;SDS011;63844;50.042;19.224;2022-12-29T05:25:23;32.40;;;14.00;;
75246;SDS011;63844;50.042;19.224;2022-12-29T05:27:49;30.40;;;13.40;;
75246;SDS011;63844;50.042;19.224;2022-12-29T05:30:16;29.40;;;14.20;;
75246;SDS011;63844;50.042;19.224;2022-12-29T05:32:42;32.40;;;14.00;;
75246;SDS011;63844;50.042;19.224;2022-12-29T05:35:09;32.80;;;13.40;;
75246;SDS011;63844;50.042;19.224;2022-12-29T05:37:35;33.70;;;13.90;;
75246;SDS011;63844;50.042;19.224;2022-12-29T05:40:01;32.80;;;13.70;;
75246;SDS011;63844;50.042;19.224;2022-12-29T05:44:55;31.20;;;14.00;;
75246;SDS011;63844;50.042;19.224;2022-12-29T05:47:21;33.80;;;15.30;;
75246;SDS011;63844;50.042;19.224;2022-12-29T05:49:48;39.50;;;17.60;;
75246;SDS011;63844;50.042;19.224;2022-12-29T05:52:14;43.80;;;19.40;;
75246;SDS011;63844;50.042;19.224;2022-12-29T05:54:40;49.00;;;22.80;;
75246;SDS011;63844;50.042;19.224;2022-12-29T05:57:07;57.60;;;26.90;;
75246;SDS011;63844;50.042;19.224;2022-12-29T05:59:34;60.40;;;25.70;;
75246;SDS011;63844;50.042;19.224;2022-12-29T06:02:00;35.40;;;15.20;;
75246;SDS011;63844;50.042;19.224;2022-12-29T06:04:26;61.80;;;28.50;;
75246;SDS011;63844;50.042;19.224;2022-12-29T06:06:53;60.90;;;27.90;;
75246;SDS011;63844;50.042;19.224;2022-12-29T06:09:19;64.20;;;30.20;;
75246;SDS011;63844;50.042;19.224;2022-12-29T06:11:46;68.80;;;31.30;;
75246;SDS011;63844;50.042;19.224;2022-12-29T06:14:12;74.40;;;32.20;;
75246;SDS011;63844;50.042;19.224;2022-12-29T06:16:38;64.20;;;28.80;;
75246;SDS011;63844;50.042;19.224;2022-12-29T06:19:05;54.30;;;25.80;;
75246;SDS011;63844;50.042;19.224;2022-12-29T06:21:31;53.00;;;23.20;;
75246;SDS011;63844;50.042;19.224;2022-12-29T06:23:57;46.30;;;22.60;;
75246;SDS011;63844;50.042;19.224;2022-12-29T06:26:24;62.70;;;29.50;;
75246;SDS011;63844;50.042;19.224;2022-12-29T06:28:50;56.70;;;27.50;;
75246;SDS011;63844;50.042;19.224;2022-12-29T06:31:16;72.60;;;30.30;;
75246;SDS011;63844;50.042;19.224;2022-12-29T06:33:43;82.00;;;32.60;;
75246;SDS011;63844;50.042;19.224;2022-12-29T06:36:09;59.10;;;27.50;;
75246;SDS011;63844;50.042;19.224;2022-12-29T06:38:36;63.70;;;27.60;;
75246;SDS011;63844;50.042;19.224;2022-12-29T06:41:02;98.80;;;33.70;;
75246;SDS011;63844;50.042;19.224;2022-12-29T06:43:29;96.80;;;32.80;;
75246;SDS011;63844;50.042;19.224;2022-12-29T06:45:56;88.40;;;27.60;;
75246;SDS011;63844;50.042;19.224;2022-12-29T06:48:23;81.50;;;27.60;;
75246;SDS011;63844;50.042;19.224;2022-12-29T06:50:49;66.20;;;24.60;;
75246;SDS011;63844;50.042;19.224;2022-12-29T06:53:15;69.70;;;26.80;;
75246;SDS011;63844;50.042;19.224;2022-12-29T06:55:42;61.40;;;26.80;;
75246;SDS011;63844;50.042;19.224;2022-12-29T06:58:08;60.00;;;25.50;;
75246;SDS011;63844;50.042;19.224;2022-12-29T07:00:35;57.30;;;25.70;;
75246;SDS011;63844;50.042;19.224;2022-12-29T07:03:02;59.20;;;28.00;;
75246;SDS011;63844;50.042;19.224;2022-12-29T07:05:29;50.80;;;23.50;;
75246;SDS011;63844;50.042;19.224;2022-12-29T07:07:57;56.60;;;24.30;;
75246;SDS011;63844;50.042;19.224;2022-12-29T07:10:24;62.00;;;25.00;;
75246;SDS011;63844;50.042;19.224;2022-12-29T07:12:52;65.70;;;25.20;;
75246;SDS011;63844;50.042;19.224;2022-12-29T07:15:18;75.70;;;29.30;;
75246;SDS011;63844;50.042;19.224;2022-12-29T07:17:45;54.00;;;23.30;;
75246;SDS011;63844;50.042;19.224;2022-12-29T07:20:11;60.70;;;24.30;;
75246;SDS011;63844;50.042;19.224;2022-12-29T07:22:37;35.60;;;17.00;;
75246;SDS011;63844;50.042;19.224;2022-12-29T07:25:04;55.70;;;23.00;;
75246;SDS011;63844;50.042;19.224;2022-12-29T07:27:31;54.50;;;24.60;;
75246;SDS011;63844;50.042;19.224;2022-12-29T07:29:57;49.00;;;20.60;;
75246;SDS011;63844;50.042;19.224;2022-12-29T07:32:24;47.20;;;21.40;;
75246;SDS011;63844;50.042;19.224;2022-12-29T07:34:50;41.30;;;17.20;;
75246;SDS011;63844;50.042;19.224;2022-12-29T07:37:17;49.50;;;21.50;;
75246;SDS011;63844;50.042;19.224;2022-12-29T07:39:44;50.90;;;19.50;;
75246;SDS011;63844;50.042;19.224;2022-12-29T07:42:10;43.80;;;19.40;;
75246;SDS011;63844;50.042;19.224;2022-12-29T07:44:36;31.80;;;11.90;;
75246;SDS011;63844;50.042;19.224;2022-12-29T07:47:03;71.70;;;26.00;;
75246;SDS011;63844;50.042;19.224;2022-12-29T07:49:29;49.60;;;20.20;;
75246;SDS011;63844;50.042;19.224;2022-12-29T07:51:56;30.80;;;13.50;;
75246;SDS011;63844;50.042;19.224;2022-12-29T07:54:22;33.10;;;16.00;;
75246;SDS011;63844;50.042;19.224;2022-12-29T07:56:49;23.30;;;10.10;;
75246;SDS011;63844;50.042;19.224;2022-12-29T07:59:16;37.30;;;15.40;;
75246;SDS011;63844;50.042;19.224;2022-12-29T08:01:43;21.00;;;9.00;;
75246;SDS011;63844;50.042;19.224;2022-12-29T08:04:10;46.20;;;18.90;;
75246;SDS011;63844;50.042;19.224;2022-12-29T08:06:36;44.20;;;18.40;;
75246;SDS011;63844;50.042;19.224;2022-12-29T08:09:03;51.60;;;23.20;;
75246;SDS011;63844;50.042;19.224;2022-12-29T08:11:30;36.00;;;14.60;;
75246;SDS011;63844;50.042;19.224;2022-12-29T08:13:56;36.60;;;16.80;;
75246;SDS011;63844;50.042;19.224;2022-12-29T08:16:23;33.60;;;13.90;;
75246;SDS011;63844;50.042;19.224;2022-12-29T08:18:49;38.10;;;16.90;;
75246;SDS011;63844;50.042;19.224;2022-12-29T08:21:15;31.50;;;14.20;;
75246;SDS011;63844;50.042;19.224;2022-12-29T08:23:42;20.10;;;9.50;;
75246;SDS011;63844;50.042;19.224;2022-12-29T08:26:09;33.40;;;14.10;;
75246;SDS011;63844;50.042;19.224;2022-12-29T08:28:36;50.20;;;21.50;;
75246;SDS011;63844;50.042;19.224;2022-12-29T08:31:03;50.70;;;19.30;;
75246;SDS011;63844;50.042;19.224;2022-12-29T08:33:29;37.50;;;17.20;;
75246;SDS011;63844;50.042;19.224;2022-12-29T08:38:27;34.60;;;15.10;;
75246;SDS011;63844;50.042;19.224;2022-12-29T08:40:55;30.30;;;13.40;;
75246;SDS011;63844;50.042;19.224;2022-12-29T08:43:23;43.30;;;18.70;;
75246;SDS011;63844;50.042;19.224;2022-12-29T08:45:49;34.60;;;16.50;;
75246;SDS011;63844;50.042;19.224;2022-12-29T08:50:46;20.10;;;9.90;;
75246;SDS011;63844;50.042;19.224;2022-12-29T08:53:12;25.80;;;10.70;;
75246;SDS011;63844;50.042;19.224;2022-12-29T08:55:39;23.50;;;9.60;;
75246;SDS011;63844;50.042;19.224;2022-12-29T08:58:06;19.40;;;8.60;;
75246;SDS011;63844;50.042;19.224;2022-12-29T09:00:32;22.30;;;12.00;;
75246;SDS011;63844;50.042;19.224;2022-12-29T09:02:59;31.60;;;13.50;;
75246;SDS011;63844;50.042;19.224;2022-12-29T09:05:25;41.80;;;19.20;;
75246;SDS011;63844;50.042;19.224;2022-12-29T09:07:51;34.30;;;15.50;;
75246;SDS011;63844;50.042;19.224;2022-12-29T09:10:18;52.80;;;24.40;;
75246;SDS011;63844;50.042;19.224;2022-12-29T09:12:44;62.60;;;27.50;;
75246;SDS011;63844;50.042;19.224;2022-12-29T09:15:11;71.00;;;31.60;;
75246;SDS011;63844;50.042;19.224;2022-12-29T09:17:38;71.10;;;32.30;;
75246;SDS011;63844;50.042;19.224;2022-12-29T09:20:12;75.40;;;34.30;;
75246;SDS011;63844;50.042;19.224;2022-12-29T09:22:41;79.40;;;35.50;;
75246;SDS011;63844;50.042;19.224;2022-12-29T09:25:08;70.60;;;31.00;;
75246;SDS011;63844;50.042;19.224;2022-12-29T09:27:35;73.20;;;31.20;;
75246;SDS011;63844;50.042;19.224;2022-12-29T09:30:03;62.80;;;29.70;;
75246;SDS011;63844;50.042;19.224;2022-12-29T09:32:30;61.20;;;28.30;;
75246;SDS011;63844;50.042;19.224;2022-12-29T09:34:56;54.00;;;25.50;;
75246;SDS011;63844;50.042;19.224;2022-12-29T09:37:23;49.70;;;23.70;;
75246;SDS011;63844;50.042;19.224;2022-12-29T09:39:49;43.40;;;18.90;;
75246;SDS011;63844;50.042;19.224;2022-12-29T09:45:10;40.40;;;16.80;;
75246;SDS011;63844;50.042;19.224;2022-12-29T09:47:39;44.00;;;18.20;;
75246;SDS011;63844;50.042;19.224;2022-12-29T09:52:48;38.90;;;15.30;;
75246;SDS011;63844;50.042;19.224;2022-12-29T09:55:21;38.70;;;17.90;;
75246;SDS011;63844;50.042;19.224;2022-12-29T10:00:36;30.80;;;13.10;;
75246;SDS011;63844;50.042;19.224;2022-12-29T10:08:20;24.50;;;9.70;;
75246;SDS011;63844;50.042;19.224;2022-12-29T10:10:57;19.00;;;9.60;;
75246;SDS011;63844;50.042;19.224;2022-12-29T10:13:34;17.70;;;7.70;;
75246;SDS011;63844;50.042;19.224;2022-12-29T10:25:11;13.20;;;5.50;;
75246;SDS011;63844;50.042;19.224;2022-12-29T10:27:43;10.70;;;5.80;;
75246;SDS011;63844;50.042;19.224;2022-12-29T10:30:14;9.20;;;4.50;;
75246;SDS011;63844;50.042;19.224;2022-12-29T10:35:29;5.90;;;3.00;;
75246;SDS011;63844;50.042;19.224;2022-12-29T10:38:03;8.20;;;3.30;;
75246;SDS011;63844;50.042;19.224;2022-12-29T10:40:41;5.40;;;2.60;;
75246;SDS011;63844;50.042;19.224;2022-12-29T10:43:16;8.00;;;4.90;;
75246;SDS011;63844;50.042;19.224;2022-12-29T10:45:51;9.40;;;4.30;;
75246;SDS011;63844;50.042;19.224;2022-12-29T10:48:25;10.70;;;5.00;;
75246;SDS011;63844;50.042;19.224;2022-12-29T10:50:56;14.20;;;6.90;;
75246;SDS011;63844;50.042;19.224;2022-12-29T10:53:26;12.80;;;5.90;;
75246;SDS011;63844;50.042;19.224;2022-12-29T10:55:59;10.40;;;5.10;;
75246;SDS011;63844;50.042;19.224;2022-12-29T10:58:29;15.00;;;7.80;;
75246;SDS011;63844;50.042;19.224;2022-12-29T11:00:58;10.10;;;3.80;;
75246;SDS011;63844;50.042;19.224;2022-12-29T11:03:44;11.20;;;5.60;;
75246;SDS011;63844;50.042;19.224;2022-12-29T11:06:24;12.10;;;4.30;;
75246;SDS011;63844;50.042;19.224;2022-12-29T11:09:07;16.00;;;9.50;;
75246;SDS011;63844;50.042;19.224;2022-12-29T11:11:38;10.00;;;5.90;;
75246;SDS011;63844;50.042;19.224;2022-12-29T11:14:16;9.10;;;5.40;;
75246;SDS011;63844;50.042;19.224;2022-12-29T11:16:56;9.20;;;4.30;;
75246;SDS011;63844;50.042;19.224;2022-12-29T11:19:25;8.30;;;4.60;;
75246;SDS011;63844;50.042;19.224;2022-12-29T11:21:53;10.40;;;5.00;;
75246;SDS011;63844;50.042;19.224;2022-12-29T11:26:52;6.70;;;2.60;;
75246;SDS011;63844;50.042;19.224;2022-12-29T11:29:28;5.90;;;2.90;;
75246;SDS011;63844;50.042;19.224;2022-12-29T11:32:10;5.60;;;2.70;;
75246;SDS011;63844;50.042;19.224;2022-12-29T11:34:48;4.60;;;2.50;;
75246;SDS011;63844;50.042;19.224;2022-12-29T11:37:18;6.80;;;2.40;;
75246;SDS011;63844;50.042;19.224;2022-12-29T11:39:55;7.20;;;3.60;;
75246;SDS011;63844;50.042;19.224;2022-12-29T11:42:41;9.10;;;4.00;;
75246;SDS011;63844;50.042;19.224;2022-12-29T11:45:19;10.80;;;4.50;;
75246;SDS011;63844;50.042;19.224;2022-12-29T11:47:49;8.30;;;3.90;;
75246;SDS011;63844;50.042;19.224;2022-12-29T11:50:20;11.30;;;5.20;;
75246;SDS011;63844;50.042;19.224;2022-12-29T11:52:50;7.30;;;3.60;;
75246;SDS011;63844;50.042;19.224;2022-12-29T11:55:25;9.30;;;3.50;;
75246;SDS011;63844;50.042;19.224;2022-12-29T11:57:53;7.90;;;3.50;;
75246;SDS011;63844;50.042;19.224;2022-12-29T12:00:23;7.70;;;3.10;;
75246;SDS011;63844;50.042;19.224;2022-12-29T12:02:57;15.90;;;3.50;;
75246;SDS011;63844;50.042;19.224;2022-12-29T12:05:28;7.20;;;4.50;;
75246;SDS011;63844;50.042;19.224;2022-12-29T12:10:58;10.70;;;4.00;;
75246;SDS011;63844;50.042;19.224;2022-12-29T12:16:15;8.20;;;3.90;;
75246;SDS011;63844;50.042;19.224;2022-12-29T12:21:38;6.60;;;3.30;;
75246;SDS011;63844;50.042;19.224;2022-12-29T12:27:13;8.60;;;4.30;;
75246;SDS011;63844;50.042;19.224;2022-12-29T12:30:04;9.50;;;4.40;;
75246;SDS011;63844;50.042;19.224;2022-12-29T12:35:12;6.30;;;2.60;;
75246;SDS011;63844;50.042;19.224;2022-12-29T12:37:49;8.20;;;3.60;;
75246;SDS011;63844;50.042;19.224;2022-12-29T12:43:40;8.10;;;3.40;;
75246;SDS011;63844;50.042;19.224;2022-12-29T12:46:15;6.10;;;2.90;;
75246;SDS011;63844;50.042;19.224;2022-12-29T12:51:42;6.10;;;3.00;;
75246;SDS011;63844;50.042;19.224;2022-12-29T12:57:30;6.40;;;3.60;;
75246;SDS011;63844;50.042;19.224;2022-12-29T13:00:09;12.80;;;6.90;;
75246;SDS011;63844;50.042;19.224;2022-12-29T13:05:49;7.40;;;4.20;;
75246;SDS011;63844;50.042;19.224;2022-12-29T13:23:06;7.60;;;3.30;;
75246;SDS011;63844;50.042;19.224;2022-12-29T13:32:14;8.80;;;4.40;;
75246;SDS011;63844;50.042;19.224;2022-12-29T13:37:53;8.80;;;3.60;;
75246;SDS011;63844;50.042;19.224;2022-12-29T13:42:52;5.70;;;2.90;;
75246;SDS011;63844;50.042;19.224;2022-12-29T13:45:22;10.40;;;4.10;;
75246;SDS011;63844;50.042;19.224;2022-12-29T13:47:54;9.90;;;3.50;;
75246;SDS011;63844;50.042;19.224;2022-12-29T13:50:39;11.50;;;6.50;;
75246;SDS011;63844;50.042;19.224;2022-12-29T13:53:29;9.70;;;5.10;;
75246;SDS011;63844;50.042;19.224;2022-12-29T13:59:19;9.60;;;6.00;;
75246;SDS011;63844;50.042;19.224;2022-12-29T14:01:53;6.90;;;3.40;;
75246;SDS011;63844;50.042;19.224;2022-12-29T14:04:25;7.90;;;3.90;;
75246;SDS011;63844;50.042;19.224;2022-12-29T14:07:37;10.80;;;4.60;;
75246;SDS011;63844;50.042;19.224;2022-12-29T14:09:47;7.50;;;3.60;;
75246;SDS011;63844;50.042;19.224;2022-12-29T14:17:36;7.30;;;3.50;;
75246;SDS011;63844;50.042;19.224;2022-12-29T14:20:05;13.40;;;4.80;;
75246;SDS011;63844;50.042;19.224;2022-12-29T14:23:15;9.50;;;5.00;;
75246;SDS011;63844;50.042;19.224;2022-12-29T14:28:37;10.30;;;6.10;;
75246;SDS011;63844;50.042;19.224;2022-12-29T14:36:34;9.70;;;4.60;;
75246;SDS011;63844;50.042;19.224;2022-12-29T14:42:11;14.30;;;5.00;;
75246;SDS011;63844;50.042;19.224;2022-12-29T14:47:14;15.90;;;6.60;;
75246;SDS011;63844;50.042;19.224;2022-12-29T14:49:46;22.60;;;10.60;;
75246;SDS011;63844;50.042;19.224;2022-12-29T14:54:42;17.80;;;7.30;;
75246;SDS011;63844;50.042;19.224;2022-12-29T14:57:22;14.80;;;7.10;;
75246;SDS011;63844;50.042;19.224;2022-12-29T14:59:54;14.20;;;6.90;;
75246;SDS011;63844;50.042;19.224;2022-12-29T15:02:28;13.60;;;6.00;;
75246;SDS011;63844;50.042;19.224;2022-12-29T15:05:00;15.80;;;6.50;;
75246;SDS011;63844;50.042;19.224;2022-12-29T15:07:29;17.30;;;9.20;;
75246;SDS011;63844;50.042;19.224;2022-12-29T15:10:03;9.80;;;5.50;;
75246;SDS011;63844;50.042;19.224;2022-12-29T15:12:36;11.10;;;4.50;;
75246;SDS011;63844;50.042;19.224;2022-12-29T15:15:16;9.80;;;4.20;;
75246;SDS011;63844;50.042;19.224;2022-12-29T15:17:50;17.50;;;8.20;;
75246;SDS011;63844;50.042;19.224;2022-12-29T15:20:27;11.10;;;6.20;;
75246;SDS011;63844;50.042;19.224;2022-12-29T15:22:56;13.40;;;5.70;;
75246;SDS011;63844;50.042;19.224;2022-12-29T15:25:26;13.70;;;5.10;;
75246;SDS011;63844;50.042;19.224;2022-12-29T15:27:58;17.30;;;5.80;;
75246;SDS011;63844;50.042;19.224;2022-12-29T15:30:27;13.00;;;5.50;;
75246;SDS011;63844;50.042;19.224;2022-12-29T15:32:54;13.60;;;5.40;;
75246;SDS011;63844;50.042;19.224;2022-12-29T15:35:25;13.50;;;5.20;;
75246;SDS011;63844;50.042;19.224;2022-12-29T15:38:15;12.90;;;5.50;;
75246;SDS011;63844;50.042;19.224;2022-12-29T15:40:54;12.70;;;5.30;;
75246;SDS011;63844;50.042;19.224;2022-12-29T15:43:37;14.80;;;6.70;;
75246;SDS011;63844;50.042;19.224;2022-12-29T15:46:15;16.30;;;6.30;;
75246;SDS011;63844;50.042;19.224;2022-12-29T15:51:18;16.60;;;6.80;;
75246;SDS011;63844;50.042;19.224;2022-12-29T15:53:48;17.00;;;7.10;;
75246;SDS011;63844;50.042;19.224;2022-12-29T15:56:17;23.40;;;10.30;;
75246;SDS011;63844;50.042;19.224;2022-12-29T15:58:45;19.90;;;8.10;;
75246;SDS011;63844;50.042;19.224;2022-12-29T16:01:17;19.80;;;8.80;;
75246;SDS011;63844;50.042;19.224;2022-12-29T16:03:45;17.90;;;9.20;;
75246;SDS011;63844;50.042;19.224;2022-12-29T16:06:33;17.10;;;7.60;;
75246;SDS011;63844;50.042;19.224;2022-12-29T16:09:14;29.30;;;11.40;;
75246;SDS011;63844;50.042;19.224;2022-12-29T16:11:52;23.40;;;10.30;;
75246;SDS011;63844;50.042;19.224;2022-12-29T16:14:23;23.80;;;11.60;;
75246;SDS011;63844;50.042;19.224;2022-12-29T16:16:59;33.80;;;16.00;;
75246;SDS011;63844;50.042;19.224;2022-12-29T16:19:33;37.50;;;16.80;;
75246;SDS011;63844;50.042;19.224;2022-12-29T16:22:11;43.70;;;23.90;;
75246;SDS011;63844;50.042;19.224;2022-12-29T16:24:43;36.90;;;19.90;;
75246;SDS011;63844;50.042;19.224;2022-12-29T16:27:18;34.10;;;17.70;;
75246;SDS011;63844;50.042;19.224;2022-12-29T16:29:49;28.40;;;14.70;;
75246;SDS011;63844;50.042;19.224;2022-12-29T16:32:23;33.80;;;15.80;;
75246;SDS011;63844;50.042;19.224;2022-12-29T16:37:46;25.70;;;13.20;;
75246;SDS011;63844;50.042;19.224;2022-12-29T16:42:49;28.40;;;11.60;;
75246;SDS011;63844;50.042;19.224;2022-12-29T16:45:25;21.30;;;8.90;;
75246;SDS011;63844;50.042;19.224;2022-12-29T16:50:49;34.20;;;13.40;;
75246;SDS011;63844;50.042;19.224;2022-12-29T16:53:20;122.40;;;52.50;;
75246;SDS011;63844;50.042;19.224;2022-12-29T16:55:50;69.60;;;35.70;;
75246;SDS011;63844;50.042;19.224;2022-12-29T16:58:28;71.60;;;32.60;;
75246;SDS011;63844;50.042;19.224;2022-12-29T17:00:57;51.10;;;19.40;;
75246;SDS011;63844;50.042;19.224;2022-12-29T17:03:29;46.10;;;18.40;;
75246;SDS011;63844;50.042;19.224;2022-12-29T17:06:00;37.90;;;15.40;;
75246;SDS011;63844;50.042;19.224;2022-12-29T17:08:26;35.70;;;14.30;;
75246;SDS011;63844;50.042;19.224;2022-12-29T17:10:54;28.60;;;13.80;;
75246;SDS011;63844;50.042;19.224;2022-12-29T17:13:40;29.70;;;13.90;;
75246;SDS011;63844;50.042;19.224;2022-12-29T17:16:07;29.90;;;11.70;;
75246;SDS011;63844;50.042;19.224;2022-12-29T17:18:37;33.60;;;14.40;;
75246;SDS011;63844;50.042;19.224;2022-12-29T17:21:04;36.30;;;14.70;;
75246;SDS011;63844;50.042;19.224;2022-12-29T17:23:31;29.60;;;13.10;;
75246;SDS011;63844;50.042;19.224;2022-12-29T17:25:59;41.20;;;16.90;;
75246;SDS011;63844;50.042;19.224;2022-12-29T17:28:27;46.90;;;18.50;;
75246;SDS011;63844;50.042;19.224;2022-12-29T17:31:00;34.40;;;15.20;;